Time;durP1;ratioP1;P1;durP2;ratioP2;P2;SDS_P1;SDS_P2;PMS_P1;PMS_P2;Temp;Humidity;BMP_temperature;BMP_pressure;BME280_temperature;BME280_humidity;BME280_pressure;Samples;Min_cycle;Max_cycle;Signal;HPM_P1;HPM_P2
2022/11/01 00:01:55;;;;;;;0.73;0.60;;;14.00;91.10;;;;;;5039560;28;20109;-73
2022/11/01 00:04:20;;;;;;;0.60;0.60;;;14.10;91.10;;;;;;5055836;28;20127;-73
2022/11/01 00:06:47;;;;;;;0.98;0.88;;;14.10;91.10;;;;;;5055404;28;20068;-73
2022/11/01 00:09:13;;;;;;;0.60;0.57;;;14.10;91.10;;;;;;5073555;28;20072;-73
2022/11/01 00:11:39;;;;;;;0.60;0.60;;;14.20;91.00;;;;;;5054985;28;20052;-74
2022/11/01 00:14:05;;;;;;;1.48;0.88;;;14.20;91.00;;;;;;5055289;28;20119;-73
2022/11/01 00:16:30;;;;;;;1.10;0.73;;;14.40;91.00;;;;;;5073325;28;20040;-73
2022/11/01 00:18:56;;;;;;;0.60;0.52;;;14.40;90.90;;;;;;5073065;28;20047;-73
2022/11/01 00:21:23;;;;;;;0.60;0.60;;;14.40;90.90;;;;;;5073279;28;20386;-74
2022/11/01 00:23:49;;;;;;;0.70;0.70;;;14.50;90.80;;;;;;5073430;28;20498;-73
2022/11/01 00:26:19;;;;;;;1.35;0.90;;;14.50;90.80;;;;;;5055081;28;20067;-73
2022/11/01 00:28:46;;;;;;;1.20;0.80;;;14.50;90.70;;;;;;5073042;28;20072;-73
2022/11/01 00:31:14;;;;;;;1.17;0.90;;;14.60;90.70;;;;;;5055386;28;20044;-73
2022/11/01 00:33:40;;;;;;;1.58;1.00;;;14.50;90.70;;;;;;5054920;28;20075;-73
2022/11/01 00:36:06;;;;;;;1.15;0.80;;;14.60;90.80;;;;;;5073288;28;20051;-73
2022/11/01 00:38:32;;;;;;;0.88;0.77;;;14.50;90.80;;;;;;5054748;28;20052;-73
2022/11/01 00:40:58;;;;;;;1.15;0.88;;;14.50;90.80;;;;;;5073462;28;20432;-74
2022/11/01 00:43:24;;;;;;;0.95;0.82;;;14.60;90.90;;;;;;5072793;28;20378;-73
2022/11/01 00:45:50;;;;;;;1.48;0.93;;;14.60;90.80;;;;;;5054757;28;20052;-73
2022/11/01 00:48:16;;;;;;;3.30;0.93;;;14.60;90.90;;;;;;5037994;28;20135;-73
2022/11/01 00:50:42;;;;;;;1.80;1.13;;;14.60;90.90;;;;;;5072800;28;20036;-74
2022/11/01 00:53:10;;;;;;;1.55;1.23;;;14.70;90.80;;;;;;5073066;28;20123;-74
2022/11/01 00:55:36;;;;;;;1.90;1.33;;;15.00;90.80;;;;;;5072575;28;20048;-74
2022/11/01 00:58:01;;;;;;;1.75;1.10;;;15.00;90.60;;;;;;5072868;28;20501;-73
2022/11/01 01:00:28;;;;;;;2.60;1.40;;;15.00;90.50;;;;;;5072361;28;20040;-73
2022/11/01 01:02:54;;;;;;;1.20;0.90;;;15.10;90.40;;;;;;5072521;28;20597;-74
2022/11/01 01:05:20;;;;;;;1.63;0.95;;;15.10;90.30;;;;;;5054673;28;20051;-74
2022/11/01 01:07:45;;;;;;;1.50;0.90;;;15.10;90.30;;;;;;5072383;28;20132;-74
2022/11/01 01:10:11;;;;;;;1.52;1.00;;;15.10;90.40;;;;;;5072669;28;20471;-73
2022/11/01 01:12:37;;;;;;;1.13;0.90;;;15.10;90.50;;;;;;5054495;28;20089;-74
2022/11/01 01:15:03;;;;;;;1.40;1.00;;;15.10;90.50;;;;;;5037975;28;20387;-74
2022/11/01 01:17:31;;;;;;;1.85;0.90;;;15.00;90.50;;;;;;5054057;28;20568;-74
2022/11/01 01:19:56;;;;;;;1.40;0.90;;;15.10;90.60;;;;;;5054405;28;20379;-74
2022/11/01 01:22:22;;;;;;;1.55;1.00;;;15.10;90.50;;;;;;5072194;28;20044;-73
2022/11/01 01:24:48;;;;;;;1.00;0.90;;;15.10;90.60;;;;;;5072716;28;20037;-73
2022/11/01 01:27:15;;;;;;;0.60;0.60;;;15.20;90.60;;;;;;5072488;28;20051;-73
2022/11/01 01:29:43;;;;;;;1.45;0.90;;;15.20;90.50;;;;;;5054104;28;20382;-73
2022/11/01 01:32:12;;;;;;;1.17;0.80;;;15.20;90.50;;;;;;5071905;28;20082;-73
2022/11/01 01:34:38;;;;;;;0.82;0.65;;;15.20;90.50;;;;;;5071655;28;20525;-73
2022/11/01 01:37:05;;;;;;;1.48;1.08;;;15.20;90.50;;;;;;5072023;28;20044;-74
2022/11/01 01:39:31;;;;;;;1.23;1.00;;;15.30;90.60;;;;;;5071835;28;20047;-74
2022/11/01 01:41:56;;;;;;;1.17;0.90;;;15.30;90.60;;;;;;5053917;28;20187;-74
2022/11/01 01:45:00;;;;;;;1.23;0.90;;;15.40;90.40;;;;;;5053279;28;20036;-73
2022/11/01 01:47:29;;;;;;;2.08;1.10;;;15.50;90.40;;;;;;5056259;28;20459;-74
2022/11/01 01:50:05;;;;;;;1.73;1.10;;;15.50;90.30;;;;;;5037466;28;20040;-74
2022/11/01 01:52:41;;;;;;;1.48;1.00;;;15.50;90.30;;;;;;5072281;28;20115;-73
2022/11/01 01:55:09;;;;;;;1.20;1.10;;;15.40;90.30;;;;;;5072155;28;20059;-74
2022/11/01 01:57:36;;;;;;;2.22;1.00;;;15.50;90.30;;;;;;5037422;28;20060;-74
2022/11/01 02:00:04;;;;;;;1.23;0.80;;;15.50;90.30;;;;;;5054128;28;20047;-73
2022/11/01 02:02:30;;;;;;;1.20;1.10;;;15.50;90.30;;;;;;5071915;28;20043;-74
2022/11/01 02:05:01;;;;;;;1.35;1.00;;;15.50;90.40;;;;;;5071805;28;20032;-74
2022/11/01 02:07:26;;;;;;;2.38;1.05;;;15.60;90.40;;;;;;5054048;28;20124;-73
2022/11/01 02:09:54;;;;;;;1.30;1.10;;;15.60;90.40;;;;;;5072019;28;20132;-74
2022/11/01 02:12:23;;;;;;;1.40;1.00;;;15.70;90.30;;;;;;5071569;28;20484;-73
2022/11/01 02:14:49;;;;;;;1.85;1.20;;;15.70;90.20;;;;;;5053434;28;20383;-74
2022/11/01 02:17:39;;;;;;;1.80;1.27;;;15.70;90.20;;;;;;5053128;28;20070;-74
2022/11/01 02:20:35;;;;;;;1.70;1.10;;;15.80;90.20;;;;;;5071784;28;20044;-74
2022/11/01 02:23:32;;;;;;;1.30;1.05;;;15.80;90.20;;;;;;5053460;28;20029;-73
2022/11/01 02:26:32;;;;;;;2.15;1.42;;;15.80;90.20;;;;;;5055647;28;20394;-74
2022/11/01 02:29:32;;;;;;;2.47;1.20;;;15.80;90.10;;;;;;5071207;28;20045;-74
2022/11/01 02:32:22;;;;;;;2.10;1.20;;;15.80;90.20;;;;;;5071377;28;20398;-74
2022/11/01 02:34:57;;;;;;;1.75;1.20;;;15.80;90.20;;;;;;5055987;28;20213;-73
2022/11/01 02:37:53;;;;;;;1.80;1.38;;;15.90;90.10;;;;;;5053166;28;20040;-73
2022/11/01 02:40:30;;;;;;;1.40;1.20;;;15.90;90.10;;;;;;5053124;28;20036;-74
2022/11/01 02:43:02;;;;;;;2.42;1.40;;;15.90;90.10;;;;;;5071321;28;20062;-74
2022/11/01 02:45:36;;;;;;;2.38;1.35;;;15.90;90.10;;;;;;5071174;28;20032;-74
2022/11/01 02:48:02;;;;;;;1.80;1.33;;;16.00;90.10;;;;;;5054544;28;20040;-73
2022/11/01 02:50:37;;;;;;;1.55;1.23;;;16.00;90.10;;;;;;5071215;28;20040;-74
2022/11/01 02:53:04;;;;;;;2.08;1.58;;;16.00;90.10;;;;;;5036788;28;20044;-74
2022/11/01 02:55:30;;;;;;;2.70;1.88;;;16.10;90.00;;;;;;5071249;28;20051;-74
2022/11/01 02:58:00;;;;;;;2.55;1.67;;;16.20;90.00;;;;;;5056153;28;20040;-74
2022/11/01 03:00:31;;;;;;;2.05;1.52;;;16.20;89.90;;;;;;5074603;28;20044;-74
2022/11/01 03:03:15;;;;;;;;;;;16.20;89.80;;;;;;5075495;28;20048;-74
2022/11/01 03:06:01;;;;;;;2.80;1.75;;;16.20;89.80;;;;;;5074316;28;19920;-74
2022/11/01 03:08:39;;;;;;;2.08;1.50;;;16.30;89.90;;;;;;5074589;28;20044;-74
2022/11/01 03:11:16;;;;;;;2.33;1.55;;;16.30;89.80;;;;;;5074295;28;20383;-73
2022/11/01 03:13:59;;;;;;;4.82;1.65;;;16.30;89.70;;;;;;5056254;28;20053;-74
2022/11/01 03:16:37;;;;;;;2.50;1.90;;;16.40;90.10;;;;;;5074160;28;20052;-74
2022/11/01 03:19:35;;;;;;;3.42;1.92;;;16.50;89.80;;;;;;5056122;28;20044;-74
2022/11/01 03:22:15;;;;;;;3.30;1.75;;;16.50;89.50;;;;;;5072455;28;20037;-74
2022/11/01 03:24:47;;;;;;;2.63;1.58;;;16.60;89.40;;;;;;5074072;28;20033;-73
2022/11/01 03:27:26;;;;;;;3.20;1.88;;;16.50;89.30;;;;;;5055994;28;20123;-73
2022/11/01 03:29:59;;;;;;;2.55;1.70;;;16.50;89.50;;;;;;5074291;28;20040;-74
2022/11/01 03:32:30;;;;;;;2.10;1.50;;;16.70;89.40;;;;;;5074198;28;20052;-73
2022/11/01 03:34:59;;;;;;;3.42;1.95;;;16.60;89.30;;;;;;5056643;28;20208;-74
2022/11/01 03:37:27;;;;;;;2.83;1.52;;;16.70;89.30;;;;;;5073669;28;20051;-74
2022/11/01 03:39:54;;;;;;;2.83;1.90;;;16.70;89.30;;;;;;5073784;28;20038;-74
2022/11/01 03:42:22;;;;;;;2.28;1.60;;;16.70;89.30;;;;;;5074193;28;20044;-74
2022/11/01 03:44:57;;;;;;;2.28;1.50;;;16.70;89.30;;;;;;5055805;28;20171;-74
2022/11/01 03:47:23;;;;;;;2.75;1.60;;;16.70;89.40;;;;;;5073522;28;20176;-75
2022/11/01 03:50:12;;;;;;;3.28;1.88;;;16.70;89.60;;;;;;5073597;28;20076;-74
2022/11/01 03:52:38;;;;;;;1.85;1.50;;;16.60;89.40;;;;;;5074388;28;20036;-74
2022/11/01 03:55:16;;;;;;;2.63;1.77;;;16.80;89.40;;;;;;5055839;28;20045;-74
2022/11/01 03:57:45;;;;;;;2.03;1.50;;;16.70;89.30;;;;;;5055586;28;20040;-74
2022/11/01 04:00:16;;;;;;;2.50;1.60;;;16.80;89.30;;;;;;5073205;28;20041;-74
2022/11/01 04:02:42;;;;;;;;;;;16.70;89.30;;;;;;5073694;28;20044;-74
2022/11/01 04:05:09;;;;;;;3.53;1.90;;;16.80;89.40;;;;;;5073462;28;19912;-74
2022/11/01 04:07:34;;;;;;;2.67;1.60;;;16.80;89.20;;;;;;5072933;28;20110;-73
2022/11/01 04:10:01;;;;;;;4.10;1.65;;;16.80;89.00;;;;;;5073635;28;20506;-75
2022/11/01 04:12:26;;;;;;;2.40;1.67;;;16.80;88.90;;;;;;5073318;28;20044;-74
2022/11/01 04:22:55;;;;;;;2.60;1.70;;;16.80;88.70;;;;;;5073297;28;20032;-73
2022/11/01 04:25:20;;;;;;;3.17;1.80;;;16.80;88.70;;;;;;5055216;28;20036;-73
2022/11/01 04:27:46;;;;;;;2.08;1.75;;;16.80;88.60;;;;;;5073737;28;20040;-74
2022/11/01 04:30:12;;;;;;;4.07;1.70;;;16.80;88.60;;;;;;5055245;28;20516;-74
2022/11/01 04:32:43;;;;;;;1.88;1.30;;;16.70;88.60;;;;;;5055340;28;20036;-74
2022/11/01 04:35:11;;;;;;;2.78;1.55;;;16.60;88.70;;;;;;5073444;28;20045;-73
2022/11/01 04:37:37;;;;;;;1.85;1.40;;;16.60;88.90;;;;;;5054843;28;20053;-74
2022/11/01 04:40:06;;;;;;;1.77;1.10;;;16.50;88.90;;;;;;5073377;28;20044;-73
2022/11/01 04:42:34;;;;;;;1.60;1.13;;;16.50;88.90;;;;;;5073303;28;20041;-74
2022/11/01 04:45:00;;;;;;;1.73;1.00;;;16.40;88.80;;;;;;5073149;28;20051;-73
2022/11/01 04:47:26;;;;;;;1.75;1.00;;;16.40;88.40;;;;;;5054666;28;20060;-74
2022/11/01 04:49:52;;;;;;;1.25;1.10;;;16.30;88.10;;;;;;5038801;28;20044;-74
2022/11/01 04:52:18;;;;;;;1.30;0.90;;;16.30;87.90;;;;;;5072488;28;20048;-73
2022/11/01 04:54:44;;;;;;;0.93;0.70;;;16.20;87.80;;;;;;5072775;28;20068;-73
2022/11/01 04:59:48;;;;;;;0.60;0.60;;;16.10;88.00;;;;;;5072499;28;20497;-74
2022/11/01 05:02:13;;;;;;;0.70;0.50;;;15.90;88.10;;;;;;5072637;28;20041;-73
2022/11/01 05:04:39;;;;;;;1.25;0.47;;;15.80;88.10;;;;;;5072586;28;20036;-74
2022/11/01 05:07:05;;;;;;;0.73;0.40;;;15.80;88.20;;;;;;5054639;28;20139;-73
2022/11/01 05:09:31;;;;;;;0.30;0.30;;;15.70;88.30;;;;;;5072615;28;20052;-73
2022/11/01 05:11:56;;;;;;;0.50;0.50;;;15.60;88.30;;;;;;5038043;28;20501;-73
2022/11/01 05:14:22;;;;;;;0.40;0.40;;;15.50;88.20;;;;;;5072788;28;20525;-73
2022/11/01 05:16:48;;;;;;;0.43;0.35;;;15.50;88.30;;;;;;5072689;28;20036;-73
2022/11/01 05:19:14;;;;;;;0.40;0.40;;;15.40;88.30;;;;;;5072170;28;20120;-73
2022/11/01 05:21:40;;;;;;;0.38;0.30;;;15.30;88.40;;;;;;5072423;28;20041;-73
2022/11/01 05:24:06;;;;;;;0.93;0.40;;;15.30;88.60;;;;;;5072656;28;20041;-73
2022/11/01 05:26:32;;;;;;;0.70;0.30;;;15.20;88.50;;;;;;5072400;28;20032;-73
2022/11/01 05:28:58;;;;;;;0.40;0.40;;;15.20;88.50;;;;;;5072764;28;20463;-73
2022/11/01 05:31:24;;;;;;;0.30;0.30;;;15.20;88.50;;;;;;5072580;28;20070;-73
2022/11/01 05:33:50;;;;;;;0.47;0.35;;;15.10;88.40;;;;;;5054851;28;20048;-73
2022/11/01 05:36:15;;;;;;;0.40;0.30;;;15.00;88.30;;;;;;5072957;28;20036;-73
2022/11/01 05:38:41;;;;;;;0.20;0.20;;;15.00;88.30;;;;;;5072130;28;20486;-73
2022/11/01 05:41:07;;;;;;;0.30;0.30;;;15.00;88.20;;;;;;5054316;28;20036;-74
2022/11/01 05:43:33;;;;;;;0.30;0.30;;;14.90;88.20;;;;;;5072251;28;20395;-73
2022/11/01 05:46:03;;;;;;;0.22;0.22;;;14.90;88.30;;;;;;5054203;28;20037;-74
2022/11/01 05:48:28;;;;;;;0.50;0.40;;;14.80;88.20;;;;;;5072012;28;20047;-74
2022/11/01 05:50:54;;;;;;;0.65;0.40;;;14.80;88.10;;;;;;5037644;28;20143;-73
2022/11/01 05:53:20;;;;;;;0.30;0.30;;;14.90;88.00;;;;;;5054004;28;20048;-72
2022/11/01 05:55:46;;;;;;;0.50;0.40;;;14.80;87.80;;;;;;5072297;28;20102;-72
2022/11/01 05:58:11;;;;;;;0.65;0.38;;;14.80;87.50;;;;;;5071819;28;20090;-72
2022/11/01 06:00:37;;;;;;;0.30;0.30;;;14.80;87.50;;;;;;5071728;28;20037;-72
2022/11/01 06:03:04;;;;;;;0.45;0.30;;;14.80;87.40;;;;;;5072148;28;20359;-71
2022/11/01 06:05:30;;;;;;;0.70;0.40;;;14.70;87.30;;;;;;5071963;28;20028;-72
2022/11/01 06:07:57;;;;;;;0.95;0.40;;;14.70;87.30;;;;;;5037354;28;20448;-71
2022/11/01 06:10:23;;;;;;;0.95;0.43;;;14.70;87.30;;;;;;5054003;28;20037;-72
2022/11/01 06:12:48;;;;;;;0.95;0.50;;;14.70;87.10;;;;;;5072333;28;20040;-71
2022/11/01 06:15:14;;;;;;;0.70;0.50;;;14.60;86.90;;;;;;5071486;28;20402;-72
2022/11/01 06:17:40;;;;;;;0.75;0.40;;;14.60;86.80;;;;;;5071490;28;20494;-72
2022/11/01 06:20:06;;;;;;;0.70;0.40;;;14.50;86.60;;;;;;5071767;28;20486;-72
2022/11/01 06:22:35;;;;;;;1.27;0.45;;;14.50;86.40;;;;;;5054389;28;20060;-72
2022/11/01 06:25:01;;;;;;;0.47;0.47;;;14.50;87.10;;;;;;5072063;28;20506;-71
2022/11/01 06:27:27;;;;;;;1.08;0.43;;;14.50;86.40;;;;;;5054454;28;20064;-71
2022/11/01 06:29:53;;;;;;;0.35;0.30;;;14.40;86.30;;;;;;5072604;28;20040;-72
2022/11/01 06:32:19;;;;;;;1.67;0.45;;;14.30;86.30;;;;;;5075788;28;20036;-72
2022/11/01 06:34:45;;;;;;;1.13;0.40;;;14.30;86.30;;;;;;5057313;28;20048;-72
2022/11/01 06:37:10;;;;;;;1.20;0.43;;;14.40;86.30;;;;;;5075711;28;20083;-71
2022/11/01 06:39:36;;;;;;;0.70;0.30;;;14.30;86.20;;;;;;5075373;28;20406;-71
2022/11/01 06:42:02;;;;;;;0.90;0.30;;;14.20;86.10;;;;;;5075214;28;20033;-71
2022/11/01 06:44:28;;;;;;;1.13;0.40;;;14.20;86.10;;;;;;5075038;28;20028;-71
2022/11/01 06:46:54;;;;;;;2.05;0.50;;;14.20;86.10;;;;;;5075617;28;20430;-71
2022/11/01 06:49:20;;;;;;;1.77;0.38;;;14.20;86.00;;;;;;5040409;28;20040;-72
2022/11/01 06:51:46;;;;;;;1.25;0.25;;;14.10;85.90;;;;;;5074952;28;20478;-71
2022/11/01 06:54:12;;;;;;;1.02;0.50;;;14.10;85.90;;;;;;5074725;28;20081;-71
2022/11/01 06:56:38;;;;;;;0.82;0.40;;;14.10;85.90;;;;;;5075139;28;20438;-70
2022/11/01 06:59:04;;;;;;;0.75;0.25;;;14.10;85.80;;;;;;5074764;28;20052;-71
2022/11/01 07:01:30;;;;;;;1.58;0.50;;;14.10;85.70;;;;;;5057028;28;20040;-71
2022/11/01 07:03:55;;;;;;;1.27;0.57;;;14.10;85.60;;;;;;5075298;28;20394;-71
2022/11/01 07:06:27;;;;;;;1.83;0.68;;;14.00;85.40;;;;;;5075093;28;20048;-71
2022/11/01 07:08:53;;;;;;;0.98;0.45;;;14.00;85.20;;;;;;5075218;28;20083;-72
2022/11/01 07:11:19;;;;;;;0.60;0.43;;;14.00;85.10;;;;;;5075060;28;20044;-71
2022/11/01 07:13:45;;;;;;;1.38;0.50;;;14.00;84.90;;;;;;5074399;28;20115;-70
2022/11/01 07:16:11;;;;;;;2.80;0.82;;;14.00;84.90;;;;;;5074387;28;20040;-72
2022/11/01 07:18:36;;;;;;;0.45;0.40;;;13.90;84.80;;;;;;5074060;28;20559;-73
2022/11/01 07:21:09;;;;;;;2.15;0.70;;;13.90;84.80;;;;;;5073928;28;20041;-75
2022/11/01 07:23:44;;;;;;;0.98;0.70;;;13.90;84.70;;;;;;4996967;28;20042;-75
2022/11/01 07:26:09;;;;;;;0.68;0.47;;;14.00;84.60;;;;;;5012532;28;20045;-74
2022/11/01 07:28:36;;;;;;;1.70;0.60;;;14.00;84.50;;;;;;4995870;28;20543;-74
2022/11/01 07:31:03;;;;;;;1.13;0.70;;;13.90;84.40;;;;;;4979613;28;20049;-74
2022/11/01 07:33:31;;;;;;;1.63;0.60;;;13.90;84.40;;;;;;4963691;28;20058;-74
2022/11/01 07:35:57;;;;;;;1.83;0.50;;;13.90;84.30;;;;;;5012207;28;20053;-73
2022/11/01 07:38:23;;;;;;;1.23;0.68;;;13.90;84.20;;;;;;5012412;28;20511;-72
2022/11/01 07:40:50;;;;;;;1.25;0.70;;;13.90;84.20;;;;;;4995807;28;20077;-71
2022/11/01 07:43:17;;;;;;;1.48;0.65;;;13.90;84.10;;;;;;4995133;28;20073;-72
2022/11/01 07:45:43;;;;;;;1.17;0.50;;;14.00;84.00;;;;;;4963637;28;20042;-73
2022/11/01 07:48:14;;;;;;;1.45;0.60;;;13.90;83.80;;;;;;5045607;28;20072;-71
2022/11/01 07:50:44;;;;;;;1.92;0.57;;;14.00;83.80;;;;;;5055883;28;20478;-71
2022/11/01 07:53:23;;;;;;;2.58;0.70;;;13.90;84.30;;;;;;5039834;28;20041;-72
2022/11/01 07:55:49;;;;;;;2.55;0.90;;;14.10;83.60;;;;;;4995282;28;20050;-72
2022/11/01 07:58:17;;;;;;;1.73;0.70;;;14.00;83.40;;;;;;4978918;28;20046;-72
2022/11/01 08:00:44;;;;;;;3.10;0.70;;;14.00;83.30;;;;;;4956174;28;20082;-72
2022/11/01 08:03:13;;;;;;;1.75;0.63;;;14.00;83.30;;;;;;4973420;28;20121;-71
2022/11/01 08:05:40;;;;;;;3.15;0.95;;;14.00;83.20;;;;;;4972903;28;20043;-71
2022/11/01 08:08:06;;;;;;;2.08;0.65;;;14.00;83.10;;;;;;4956493;28;20466;-73
2022/11/01 08:10:34;;;;;;;2.58;0.75;;;13.90;83.10;;;;;;4972628;28;20069;-73
2022/11/01 08:13:18;;;;;;;1.13;0.47;;;14.00;83.00;;;;;;4957081;28;20047;-73
2022/11/01 08:15:44;;;;;;;2.42;0.80;;;14.00;83.00;;;;;;4973360;28;20125;-72
2022/11/01 08:18:11;;;;;;;1.58;0.68;;;14.00;83.10;;;;;;4956618;28;20058;-73
2022/11/01 08:20:37;;;;;;;1.23;0.63;;;14.00;83.10;;;;;;4997197;28;20057;-74
2022/11/01 08:23:03;;;;;;;2.53;0.85;;;14.00;83.00;;;;;;4995183;28;20077;-75
2022/11/01 08:25:29;;;;;;;1.70;0.60;;;14.00;82.90;;;;;;4995813;28;20045;-74
2022/11/01 08:28:02;;;;;;;2.70;0.90;;;13.90;82.70;;;;;;4979083;28;20535;-73
2022/11/01 08:30:28;;;;;;;4.22;0.90;;;14.00;82.70;;;;;;4995098;28;20475;-72
2022/11/01 08:32:59;;;;;;;4.15;0.90;;;14.00;82.60;;;;;;5073373;28;20042;-74
2022/11/01 08:35:25;;;;;;;2.80;0.93;;;14.00;82.60;;;;;;5056115;28;20036;-74
2022/11/01 08:37:51;;;;;;;2.45;0.85;;;14.00;82.50;;;;;;5055244;28;20495;-73
2022/11/01 08:40:19;;;;;;;1.27;0.73;;;14.00;82.40;;;;;;5073213;28;20036;-72
2022/11/01 08:42:44;;;;;;;3.10;0.80;;;14.10;82.40;;;;;;5073549;28;20037;-72
2022/11/01 08:45:10;;;;;;;2.17;0.57;;;14.00;82.30;;;;;;5072817;28;20041;-70
2022/11/01 08:47:37;;;;;;;4.43;1.20;;;14.00;82.20;;;;;;5073312;28;20055;-72
2022/11/01 08:50:04;;;;;;;2.90;1.00;;;14.00;81.80;;;;;;5072815;28;20509;-73
2022/11/01 08:52:30;;;;;;;2.42;1.02;;;14.10;81.80;;;;;;5073019;28;20056;-73
2022/11/01 08:54:56;;;;;;;1.85;0.77;;;14.10;81.80;;;;;;5074013;28;20036;-75
2022/11/01 08:57:22;;;;;;;3.92;1.20;;;14.10;81.80;;;;;;5074169;28;20060;-73
2022/11/01 08:59:48;;;;;;;3.60;0.80;;;14.10;81.80;;;;;;5057624;28;20045;-74
2022/11/01 09:02:13;;;;;;;3.28;0.90;;;14.10;81.70;;;;;;5073859;28;20147;-73
2022/11/01 09:04:39;;;;;;;3.38;1.02;;;14.10;81.50;;;;;;5072785;28;20503;-72
2022/11/01 09:07:05;;;;;;;3.45;1.20;;;14.10;81.30;;;;;;5072690;28;20047;-72
2022/11/01 09:09:31;;;;;;;2.40;0.82;;;14.20;81.40;;;;;;5054741;28;20037;-72
2022/11/01 09:11:57;;;;;;;4.03;1.00;;;14.10;81.30;;;;;;5054745;28;20127;-73
2022/11/01 09:14:23;;;;;;;3.15;1.00;;;14.20;81.20;;;;;;5072676;28;20040;-72
2022/11/01 09:16:50;;;;;;;2.63;0.88;;;14.20;81.20;;;;;;5055020;28;20041;-72
2022/11/01 09:19:15;;;;;;;2.90;0.98;;;14.20;81.10;;;;;;5072719;28;20041;-73
2022/11/01 09:21:43;;;;;;;3.55;0.80;;;14.20;81.10;;;;;;5054561;28;20127;-74
2022/11/01 09:24:14;;;;;;;3.08;0.80;;;14.30;81.00;;;;;;5054343;28;20041;-73
2022/11/01 09:26:41;;;;;;;2.17;0.70;;;14.30;81.10;;;;;;5054914;28;20048;-73
2022/11/01 09:29:07;;;;;;;2.15;0.80;;;14.30;81.10;;;;;;5072810;28;20144;-73
2022/11/01 09:31:36;;;;;;;1.85;0.80;;;14.30;81.00;;;;;;5053787;28;20127;-72
2022/11/01 09:34:10;;;;;;;3.28;0.73;;;14.30;80.90;;;;;;5009972;28;20136;-72
2022/11/01 09:36:39;;;;;;;2.13;0.65;;;14.50;81.00;;;;;;4978668;28;20046;-73
2022/11/01 09:39:05;;;;;;;0.40;0.40;;;14.40;81.00;;;;;;4977420;28;20081;-72
2022/11/01 09:41:41;;;;;;;2.80;1.00;;;14.40;81.00;;;;;;4970730;28;20039;-72
2022/11/01 09:44:16;;;;;;;3.50;0.88;;;14.30;80.90;;;;;;4956023;28;20085;-72
2022/11/01 09:46:53;;;;;;;3.03;1.10;;;14.40;80.80;;;;;;4948280;28;20049;-71
2022/11/01 09:49:22;;;;;;;2.22;0.90;;;14.40;80.70;;;;;;4956273;28;20047;-71
2022/11/01 09:51:48;;;;;;;1.85;0.68;;;14.40;80.60;;;;;;4970961;28;20070;-72
2022/11/01 09:54:17;;;;;;;2.03;0.70;;;14.40;80.60;;;;;;4971604;28;20053;-72
2022/11/01 09:57:07;;;;;;;2.30;0.90;;;14.50;80.60;;;;;;4971205;28;20137;-73
2022/11/01 09:59:44;;;;;;;1.13;0.52;;;14.50;80.50;;;;;;4957454;28;20047;-71
2022/11/01 10:02:49;;;;;;;2.42;0.80;;;14.50;80.50;;;;;;4971594;28;20051;-73
2022/11/01 10:05:49;;;;;;;3.40;1.10;;;14.60;80.40;;;;;;4965828;28;20034;-72
2022/11/01 10:08:36;;;;;;;3.70;1.05;;;14.60;80.10;;;;;;4988807;28;20493;-73
2022/11/01 10:11:27;;;;;;;2.25;0.75;;;14.70;80.00;;;;;;4990874;28;20053;-72
2022/11/01 10:14:12;;;;;;;2.17;0.90;;;14.70;80.00;;;;;;5071813;28;20044;-73
2022/11/01 10:16:41;;;;;;;4.07;0.95;;;14.70;79.80;;;;;;5036784;28;20044;-73
2022/11/01 10:19:14;;;;;;;1.58;0.75;;;14.70;79.80;;;;;;4993165;28;20052;-74
2022/11/01 10:22:17;;;;;;;2.83;0.95;;;14.80;79.90;;;;;;5012817;28;20041;-74
2022/11/01 10:24:51;;;;;;;3.85;0.82;;;14.70;79.90;;;;;;5029933;28;20057;-74
2022/11/01 10:30:39;;;;;;;3.97;1.45;;;14.80;79.30;;;;;;5004016;28;20041;-73
2022/11/01 10:33:25;;;;;;;5.60;1.48;;;14.80;78.90;;;;;;5012907;28;20045;-72
2022/11/01 10:36:01;;;;;;;3.20;1.05;;;14.80;78.70;;;;;;5029363;28;20049;-73
2022/11/01 10:38:46;;;;;;;3.65;1.00;;;14.70;78.60;;;;;;5012991;28;20065;-73
2022/11/01 10:41:21;;;;;;;3.67;1.02;;;14.70;78.80;;;;;;4996573;28;20034;-73
2022/11/01 10:43:51;;;;;;;2.08;0.85;;;14.70;78.90;;;;;;5029569;28;20073;-72
2022/11/01 10:46:22;;;;;;;3.03;0.77;;;14.90;79.00;;;;;;5013115;28;20048;-72
2022/11/01 10:48:55;;;;;;;2.40;0.88;;;15.00;79.10;;;;;;5029816;28;20120;-73
2022/11/01 10:51:43;;;;;;;3.10;1.08;;;14.90;79.00;;;;;;5066202;28;20132;-73
2022/11/01 10:54:21;;;;;;;2.05;0.90;;;14.90;78.90;;;;;;5070734;28;20067;-75
2022/11/01 10:56:56;;;;;;;4.07;1.02;;;14.90;79.00;;;;;;5070943;28;20051;-75
2022/11/01 10:59:28;;;;;;;3.22;0.95;;;14.90;79.10;;;;;;5052973;28;20130;-72
2022/11/01 11:02:25;;;;;;;3.42;0.93;;;15.00;79.00;;;;;;5053045;28;20060;-74
2022/11/01 11:04:51;;;;;;;4.25;1.20;;;15.00;78.80;;;;;;5038671;28;20490;-73
2022/11/01 11:07:18;;;;;;;3.50;0.93;;;15.00;78.60;;;;;;5036371;28;20037;-75
2022/11/01 11:09:46;;;;;;;3.47;0.90;;;15.10;78.60;;;;;;5053289;28;20037;-75
2022/11/01 11:12:18;;;;;;;2.95;0.95;;;15.10;78.60;;;;;;5071093;28;20036;-73
2022/11/01 11:14:47;;;;;;;2.08;0.85;;;15.10;79.20;;;;;;5053642;28;20095;-73
2022/11/01 11:17:25;;;;;;;2.30;0.80;;;15.10;78.60;;;;;;5070413;28;20446;-73
2022/11/01 11:19:52;;;;;;;4.90;1.00;;;15.20;78.50;;;;;;5056565;28;20588;-73
2022/11/01 11:22:20;;;;;;;3.58;1.25;;;15.20;78.40;;;;;;5056368;28;20086;-74
2022/11/01 11:24:46;;;;;;;2.72;1.02;;;15.30;78.40;;;;;;5074518;28;20122;-74
2022/11/01 11:27:24;;;;;;;3.75;1.00;;;15.30;78.10;;;;;;5074339;28;20041;-73
2022/11/01 11:29:53;;;;;;;3.63;0.90;;;15.40;78.10;;;;;;5074433;28;20051;-73
2022/11/01 11:32:23;;;;;;;2.63;0.77;;;15.40;78.10;;;;;;5056198;28;20486;-74
2022/11/01 11:34:58;;;;;;;2.63;0.88;;;15.40;78.00;;;;;;5056868;28;20127;-72
2022/11/01 11:37:27;;;;;;;3.20;0.98;;;15.50;77.90;;;;;;5055922;28;20036;-71
2022/11/01 11:40:05;;;;;;;2.85;0.90;;;15.50;77.60;;;;;;5073955;28;20037;-72
2022/11/01 11:42:32;;;;;;;3.47;1.15;;;15.60;77.50;;;;;;5073678;28;20115;-72
2022/11/01 11:45:13;;;;;;;3.70;1.05;;;15.60;77.50;;;;;;5074313;28;20170;-72
2022/11/01 11:47:39;;;;;;;1.05;0.60;;;15.80;77.40;;;;;;5073771;28;20046;-72
2022/11/01 11:50:24;;;;;;;2.15;0.88;;;15.80;77.40;;;;;;5039046;28;20036;-72
2022/11/01 11:52:59;;;;;;;3.00;0.68;;;16.00;77.20;;;;;;5073966;28;20069;-72
2022/11/01 11:55:34;;;;;;;5.07;1.10;;;16.00;77.00;;;;;;5074079;28;20047;-72
2022/11/01 11:58:01;;;;;;;2.70;1.00;;;16.10;76.80;;;;;;5073437;28;20067;-72
2022/11/01 12:00:28;;;;;;;2.33;0.82;;;16.10;76.60;;;;;;5073963;28;20044;-71
2022/11/01 12:02:54;;;;;;;3.67;1.10;;;16.20;76.50;;;;;;5039053;28;20123;-72
2022/11/01 12:05:22;;;;;;;2.42;0.70;;;16.20;76.50;;;;;;5074183;28;20071;-72
2022/11/01 12:07:51;;;;;;;1.75;0.47;;;16.30;76.50;;;;;;5074061;28;20098;-72
2022/11/01 12:10:31;;;;;;;3.90;0.95;;;16.40;76.50;;;;;;5039545;28;20405;-72
2022/11/01 12:12:57;;;;;;;3.72;0.70;;;16.50;76.40;;;;;;5073774;28;20048;-72
2022/11/01 12:15:30;;;;;;;2.75;0.75;;;16.60;76.30;;;;;;5073473;28;20038;-72
2022/11/01 12:18:06;;;;;;;2.60;0.82;;;16.70;76.20;;;;;;5073787;28;20072;-72
2022/11/01 12:20:37;;;;;;;2.90;0.90;;;16.60;75.80;;;;;;5073535;28;20123;-72
2022/11/01 12:23:15;;;;;;;2.63;0.80;;;16.70;76.00;;;;;;5056185;28;20474;-72
2022/11/01 12:25:49;;;;;;;2.10;0.70;;;16.60;76.00;;;;;;5073254;28;20048;-72
2022/11/01 12:28:23;;;;;;;2.50;0.80;;;16.60;75.80;;;;;;5072786;28;20560;-73
2022/11/01 12:30:54;;;;;;;2.67;0.80;;;16.70;75.80;;;;;;5056495;28;20076;-72
2022/11/01 12:33:35;;;;;;;2.03;0.60;;;16.70;75.80;;;;;;5022671;28;20118;-72
2022/11/01 12:36:01;;;;;;;4.40;0.95;;;16.80;75.70;;;;;;4978984;28;20060;-71
2022/11/01 12:38:46;;;;;;;2.83;0.80;;;16.70;75.40;;;;;;5011238;28;20038;-71
2022/11/01 12:41:37;;;;;;;2.65;0.82;;;16.70;75.90;;;;;;5011096;28;20092;-72
2022/11/01 12:44:40;;;;;;;2.13;0.63;;;16.80;75.80;;;;;;5012906;28;20057;-72
2022/11/01 12:47:26;;;;;;;2.47;0.90;;;16.60;75.90;;;;;;5030693;28;20132;-72
2022/11/01 12:50:18;;;;;;;1.02;0.70;;;16.70;75.90;;;;;;5031379;28;20041;-72
2022/11/01 12:53:09;;;;;;;1.65;0.80;;;16.60;75.70;;;;;;5017011;28;20037;-72
2022/11/01 12:55:37;;;;;;;2.28;0.88;;;16.60;75.80;;;;;;5030657;28;20050;-72
2022/11/01 12:58:05;;;;;;;1.77;0.70;;;16.60;75.90;;;;;;5031338;28;20553;-73
2022/11/01 13:00:52;;;;;;;2.97;0.88;;;16.70;75.90;;;;;;5014431;28;20073;-72
2022/11/01 13:03:41;;;;;;;2.60;0.95;;;16.70;76.20;;;;;;5029907;28;20507;-73
2022/11/01 13:06:29;;;;;;;1.35;0.65;;;16.70;75.40;;;;;;5018683;28;20500;-73
2022/11/01 13:09:27;;;;;;;2.78;0.90;;;16.70;75.40;;;;;;5052768;28;20048;-72
2022/11/01 13:12:09;;;;;;;1.65;0.50;;;16.70;75.60;;;;;;5054708;28;20040;-72
2022/11/01 13:14:51;;;;;;;1.25;0.60;;;16.70;75.70;;;;;;5054500;28;20049;-73
2022/11/01 13:17:41;;;;;;;2.30;0.70;;;16.70;75.80;;;;;;5072434;28;20109;-72
2022/11/01 13:20:39;;;;;;;1.33;0.57;;;16.70;75.80;;;;;;5072548;28;20045;-71
2022/11/01 13:23:23;;;;;;;1.40;0.60;;;16.60;75.90;;;;;;5072417;28;20279;-73